Terminal Aerodrome Forecast
Issued by NWS

Home | Current Version | Previous Version | Text Only | Print | Product List | Glossary On
Versions: 1 2 3 4 5 6 7 8 9 10 11 12 13 14 15 16 17 18 19 20
000
FTUS43 KDLH 270529
TAFHIB
TAF
KHIB 270529Z 2706/2806 VRB04KT P6SM VCSH SCT040 BKN100
      TEMPO 2707/2709 5SM -TSRA BR BKN040CB
     FM270900 VRB05KT P6SM VCTS SCT040CB OVC060
     FM271600 11005KT P6SM VCSH SCT030 OVC050
     FM280400 VRB03KT P6SM SCT040=

USA.gov is the U.S. government's official web portal to all federal, state and local government web resources and services.